createdAt,value
2016-09-25T00:00:50.046Z,0
2016-09-25T00:01:50.122Z,0
2016-09-25T00:02:50.186Z,0
2016-09-25T00:03:50.239Z,0
2016-09-25T00:04:50.268Z,0
2016-09-25T00:05:50.351Z,0
2016-09-25T00:06:50.410Z,0
2016-09-25T00:07:50.456Z,0
2016-09-25T00:08:50.539Z,0
2016-09-25T00:09:50.572Z,0
2016-09-25T00:10:50.944Z,0
2016-09-25T00:11:50.683Z,0
2016-09-25T00:12:50.733Z,0
2016-09-25T00:13:50.788Z,0
2016-09-25T00:14:50.865Z,0
2016-09-25T00:15:50.886Z,0
2016-09-25T00:16:50.974Z,0
2016-09-25T00:17:51.023Z,0
2016-09-25T00:18:51.062Z,0
2016-09-25T00:19:51.146Z,0
2016-09-25T00:20:51.205Z,0
2016-09-25T00:21:51.241Z,0
2016-09-25T00:22:51.293Z,0
2016-09-25T00:23:51.341Z,0
2016-09-25T00:24:51.393Z,0
2016-09-25T00:25:51.476Z,0
2016-09-25T00:26:51.514Z,0
2016-09-25T00:27:51.555Z,0
2016-09-25T00:28:51.627Z,0
2016-09-25T00:29:51.680Z,0
2016-09-25T00:30:51.769Z,0
2016-09-25T00:31:51.823Z,0
2016-09-25T00:32:51.865Z,0
2016-09-25T00:33:51.912Z,0
2016-09-25T00:34:51.960Z,0
2016-09-25T00:35:52.003Z,0
2016-09-25T00:36:52.071Z,0
2016-09-25T00:37:52.128Z,0
2016-09-25T00:38:52.159Z,0
2016-09-25T00:39:52.222Z,0
2016-09-25T00:40:52.299Z,0
2016-09-25T00:41:52.361Z,0
2016-09-25T00:42:52.396Z,0
2016-09-25T00:43:52.453Z,0
2016-09-25T00:44:52.512Z,0
2016-09-25T00:45:52.580Z,0
2016-09-25T00:46:52.611Z,0
2016-09-25T00:47:52.674Z,0
2016-09-25T00:48:52.760Z,0
2016-09-25T00:49:52.796Z,0
2016-09-25T00:50:52.859Z,0
2016-09-25T00:51:52.910Z,0
2016-09-25T00:52:52.971Z,0
2016-09-25T00:53:53.031Z,0
2016-09-25T00:54:53.079Z,0
2016-09-25T00:55:53.153Z,0
2016-09-25T00:56:53.209Z,0
2016-09-25T00:57:53.232Z,0
2016-09-25T00:58:53.313Z,0
2016-09-25T00:59:53.349Z,0
2016-09-25T01:00:53.417Z,0
2016-09-25T01:01:53.468Z,0
2016-09-25T01:02:53.512Z,0
2016-09-25T01:03:53.574Z,0
2016-09-25T01:04:53.631Z,0
2016-09-25T01:05:53.675Z,0
2016-09-25T01:06:53.717Z,0
2016-09-25T01:07:53.812Z,0
2016-09-25T01:08:53.844Z,0
2016-09-25T01:09:53.899Z,0
2016-09-25T01:10:53.977Z,0
2016-09-25T01:11:54.024Z,0
2016-09-25T01:12:54.069Z,0
2016-09-25T01:13:54.131Z,0
2016-09-25T01:14:54.176Z,0
2016-09-25T01:15:54.248Z,0
2016-09-25T01:16:54.319Z,0
2016-09-25T01:17:54.351Z,0
2016-09-25T01:18:54.380Z,0
2016-09-25T01:19:54.471Z,0
2016-09-25T01:20:54.505Z,0
2016-09-25T01:21:54.585Z,0
2016-09-25T01:22:54.620Z,0
2016-09-25T01:23:54.678Z,0
2016-09-25T01:24:54.819Z,0
2016-09-25T01:25:54.812Z,0
2016-09-25T01:26:54.828Z,0
2016-09-25T01:27:54.925Z,0
2016-09-25T01:28:54.977Z,0
2016-09-25T01:29:55.007Z,0
2016-09-25T01:30:55.076Z,0
2016-09-25T01:31:55.119Z,0
2016-09-25T01:32:55.163Z,0
2016-09-25T01:33:55.239Z,0
2016-09-25T01:34:55.318Z,0
2016-09-25T01:35:55.361Z,0
2016-09-25T01:36:55.399Z,0
2016-09-25T01:37:55.466Z,0
2016-09-25T01:38:55.500Z,0
2016-09-25T01:39:55.591Z,0
2016-09-25T01:40:55.633Z,0
2016-09-25T01:41:55.675Z,0
2016-09-25T01:42:55.769Z,0
2016-09-25T01:43:55.784Z,0
2016-09-25T01:44:55.847Z,0
2016-09-25T01:45:55.887Z,0
2016-09-25T01:46:55.961Z,0
2016-09-25T01:47:55.999Z,0
2016-09-25T01:48:56.078Z,0
2016-09-25T01:49:56.150Z,0
2016-09-25T01:50:56.196Z,0
2016-09-25T01:51:56.232Z,0
2016-09-25T01:52:56.291Z,0
2016-09-25T01:53:56.352Z,0
2016-09-25T01:54:56.395Z,0
2016-09-25T01:55:56.468Z,0
2016-09-25T01:56:56.525Z,0
2016-09-25T01:57:56.571Z,0
2016-09-25T01:58:56.636Z,0
2016-09-25T01:59:56.673Z,0
2016-09-25T02:00:56.734Z,0
2016-09-25T02:01:56.792Z,0
2016-09-25T02:02:56.868Z,0
2016-09-25T02:03:56.887Z,0
2016-09-25T02:04:56.940Z,0
2016-09-25T02:05:57.019Z,0
2016-09-25T02:06:57.384Z,0
2016-09-25T02:07:57.117Z,0
2016-09-25T02:08:57.208Z,0
2016-09-25T02:09:57.242Z,0
2016-09-25T02:10:57.293Z,0
2016-09-25T02:11:57.356Z,0
2016-09-25T02:12:57.395Z,0
2016-09-25T02:13:57.438Z,0
2016-09-25T02:14:57.519Z,0
2016-09-25T02:15:57.569Z,0
2016-09-25T02:16:57.622Z,0
2016-09-25T02:17:57.678Z,0
2016-09-25T02:18:57.719Z,0
2016-09-25T02:19:57.794Z,0
2016-09-25T02:20:57.868Z,0
2016-09-25T02:21:57.925Z,0
2016-09-25T02:22:57.967Z,0
2016-09-25T02:23:58.047Z,0
2016-09-25T02:24:58.058Z,0
2016-09-25T02:25:58.156Z,0
2016-09-25T02:26:58.200Z,0
2016-09-25T02:27:58.266Z,0
2016-09-25T02:28:58.306Z,0
2016-09-25T02:29:58.366Z,0
2016-09-25T02:30:58.419Z,0
2016-09-25T02:31:58.485Z,0
2016-09-25T02:32:58.500Z,0
2016-09-25T02:33:58.584Z,0
2016-09-25T02:34:58.604Z,0
2016-09-25T02:35:58.684Z,0
2016-09-25T02:36:58.742Z,0
2016-09-25T02:37:58.792Z,0
2016-09-25T02:38:58.859Z,0
2016-09-25T02:39:58.902Z,0
2016-09-25T02:40:58.975Z,0
2016-09-25T02:41:59.039Z,0
2016-09-25T02:42:59.080Z,0
2016-09-25T02:43:59.141Z,0
2016-09-25T02:44:59.174Z,0
2016-09-25T02:45:59.220Z,0
2016-09-25T02:46:59.311Z,0
2016-09-25T02:47:59.359Z,0
2016-09-25T02:48:59.401Z,0
2016-09-25T02:49:59.476Z,0
2016-09-25T02:50:59.523Z,0
2016-09-25T02:51:59.583Z,0
2016-09-25T02:52:59.637Z,0
2016-09-25T02:53:59.683Z,0
2016-09-25T02:54:59.731Z,0
2016-09-25T02:55:59.796Z,0
2016-09-25T02:56:59.875Z,0
2016-09-25T02:57:59.923Z,0
2016-09-25T02:59:00.288Z,0
2016-09-25T03:00:00.024Z,0
2016-09-25T03:01:00.089Z,0
2016-09-25T03:02:00.123Z,0
2016-09-25T03:03:00.173Z,0
2016-09-25T03:04:00.283Z,0
2016-09-25T03:05:00.308Z,0
2016-09-25T03:06:00.381Z,0
2016-09-25T03:07:00.410Z,0
2016-09-25T03:08:00.464Z,0
2016-09-25T03:09:00.533Z,0
2016-09-25T03:10:00.581Z,0
2016-09-25T03:11:00.646Z,0
2016-09-25T03:12:00.700Z,0
2016-09-25T03:13:01.073Z,0
2016-09-25T03:14:00.807Z,0
2016-09-25T03:15:00.864Z,0
2016-09-25T03:16:00.906Z,0
2016-09-25T03:17:00.958Z,0
2016-09-25T03:18:01.044Z,0
2016-09-25T03:19:01.066Z,0
2016-09-25T03:20:01.135Z,0
2016-09-25T03:21:01.196Z,0
2016-09-25T03:22:01.271Z,0
2016-09-25T03:23:01.283Z,0
2016-09-25T03:24:01.356Z,0
2016-09-25T03:25:01.406Z,0
2016-09-25T03:26:01.490Z,0
2016-09-25T03:27:01.534Z,0
2016-09-25T03:28:01.576Z,0
2016-09-25T03:29:01.636Z,0
2016-09-25T03:30:01.686Z,0
2016-09-25T03:31:01.727Z,0
2016-09-25T03:32:01.817Z,0
2016-09-25T03:33:01.845Z,0
2016-09-25T03:34:01.900Z,0
2016-09-25T03:35:01.967Z,0
2016-09-25T03:36:02.040Z,0
2016-09-25T03:37:02.073Z,0
2016-09-25T03:38:02.169Z,0
2016-09-25T03:39:02.207Z,0
2016-09-25T03:40:02.244Z,0
2016-09-25T03:41:02.320Z,0
2016-09-25T03:42:02.391Z,0
2016-09-25T03:43:02.423Z,0
2016-09-25T03:44:02.784Z,0
2016-09-25T03:45:02.505Z,0
2016-09-25T03:46:02.606Z,0
2016-09-25T03:47:02.631Z,0
2016-09-25T03:48:02.709Z,0
2016-09-25T03:49:02.726Z,0
2016-09-25T03:50:03.109Z,0
2016-09-25T03:51:02.860Z,0
2016-09-25T03:52:02.919Z,0
2016-09-25T03:53:03.273Z,0
2016-09-25T03:54:03.342Z,0
2016-09-25T03:55:03.070Z,0
2016-09-25T03:56:03.128Z,0
2016-09-25T03:57:03.188Z,0
2016-09-25T03:58:03.258Z,0
2016-09-25T03:59:03.318Z,0
2016-09-25T04:00:03.360Z,0
2016-09-25T04:01:03.703Z,0
2016-09-25T04:02:03.464Z,0
2016-09-25T04:03:03.533Z,0
2016-09-25T04:04:03.598Z,0
2016-09-25T04:05:03.651Z,0
2016-09-25T04:06:03.716Z,0
2016-09-25T04:07:04.065Z,0
2016-09-25T04:08:03.821Z,0
2016-09-25T04:09:03.854Z,0
2016-09-25T04:10:03.924Z,0
2016-09-25T04:11:03.987Z,0
2016-09-25T04:12:04.007Z,0
2016-09-25T04:13:04.379Z,0
2016-09-25T04:14:04.125Z,0
2016-09-25T04:15:04.193Z,0
2016-09-25T04:16:04.604Z,0
2016-09-25T04:17:04.325Z,0
2016-09-25T04:18:04.352Z,0
2016-09-25T04:19:04.428Z,0
2016-09-25T04:20:04.461Z,0
2016-09-25T04:21:04.849Z,0
2016-09-25T04:22:04.572Z,0
2016-09-25T04:23:04.639Z,0
2016-09-25T04:24:04.714Z,0
2016-09-25T04:25:04.771Z,0
2016-09-25T04:26:04.840Z,0
2016-09-25T04:27:04.880Z,0
2016-09-25T04:28:04.927Z,0
2016-09-25T04:29:04.955Z,0
2016-09-25T04:30:05.052Z,0
2016-09-25T04:31:05.089Z,0
2016-09-25T04:32:05.156Z,0
2016-09-25T04:33:05.489Z,0
2016-09-25T04:34:05.278Z,0
2016-09-25T04:35:05.596Z,0
2016-09-25T04:36:05.671Z,0
2016-09-25T04:37:05.403Z,0
2016-09-25T04:38:05.448Z,0
2016-09-25T04:39:05.540Z,0
2016-09-25T04:40:05.901Z,0
2016-09-25T04:41:05.661Z,0
2016-09-25T04:42:05.683Z,0
2016-09-25T04:43:05.749Z,0
2016-09-25T04:44:06.135Z,0
2016-09-25T04:45:05.867Z,0
2016-09-25T04:46:05.908Z,0
2016-09-25T04:47:05.977Z,0
2016-09-25T04:48:06.026Z,0
2016-09-25T04:49:06.198Z,0
2016-09-25T04:50:06.153Z,0
2016-09-25T04:51:06.189Z,0
2016-09-25T04:52:06.277Z,0
2016-09-25T04:53:06.284Z,0
2016-09-25T04:54:06.430Z,0
2016-09-25T04:55:06.448Z,0
2016-09-25T04:56:06.450Z,0
2016-09-25T04:57:06.536Z,0
2016-09-25T04:58:06.579Z,0
2016-09-25T04:59:06.741Z,0
2016-09-25T05:00:06.697Z,0
2016-09-25T05:01:06.748Z,0
2016-09-25T05:02:06.792Z,0
2016-09-25T05:03:06.840Z,0
2016-09-25T05:04:06.906Z,0
2016-09-25T05:05:06.959Z,0
2016-09-25T05:06:07.023Z,0
2016-09-25T05:07:07.074Z,0
2016-09-25T05:08:07.131Z,0
2016-09-25T05:09:07.183Z,0
2016-09-25T05:10:07.262Z,0
2016-09-25T05:11:07.290Z,0
2016-09-25T05:12:07.354Z,0
2016-09-25T05:13:07.391Z,0
2016-09-25T05:14:07.451Z,0
2016-09-25T05:15:07.513Z,0
2016-09-25T05:16:07.586Z,0
2016-09-25T05:17:07.650Z,0
2016-09-25T05:18:07.676Z,0
2016-09-25T05:19:07.748Z,0
2016-09-25T05:20:07.831Z,0
2016-09-25T05:21:07.866Z,0
2016-09-25T05:22:07.887Z,0
2016-09-25T05:23:07.951Z,0
2016-09-25T05:24:08.040Z,0
2016-09-25T05:25:08.065Z,0
2016-09-25T05:26:08.126Z,0
2016-09-25T05:27:08.160Z,0
2016-09-25T05:28:08.241Z,0
2016-09-25T05:29:08.307Z,0
2016-09-25T05:30:08.348Z,0
2016-09-25T05:31:08.382Z,0
2016-09-25T05:32:08.474Z,0
2016-09-25T05:33:08.531Z,0
2016-09-25T05:34:08.577Z,0
2016-09-25T05:35:08.621Z,0
2016-09-25T05:36:08.671Z,0
2016-09-25T05:37:08.722Z,5
2016-09-25T05:38:08.786Z,5
2016-09-25T05:39:08.854Z,5
2016-09-25T05:40:08.891Z,5
2016-09-25T05:41:08.967Z,5
2016-09-25T05:42:09.017Z,5
2016-09-25T05:43:09.053Z,5
2016-09-25T05:44:09.133Z,5
2016-09-25T05:45:09.164Z,5
2016-09-25T05:46:09.238Z,5
2016-09-25T05:47:09.284Z,5
2016-09-25T05:48:09.340Z,5
2016-09-25T05:49:09.384Z,5
2016-09-25T05:50:09.454Z,5
2016-09-25T05:51:09.495Z,5
2016-09-25T05:52:09.571Z,5
2016-09-25T05:53:09.598Z,5
2016-09-25T05:54:09.657Z,5
2016-09-25T05:55:09.728Z,5
2016-09-25T05:56:09.783Z,5
2016-09-25T05:57:09.809Z,5
2016-09-25T05:58:10.190Z,5
2016-09-25T05:59:10.240Z,5
2016-09-25T06:00:10.006Z,5
2016-09-25T06:01:10.068Z,5
2016-09-25T06:02:10.099Z,5
2016-09-25T06:03:10.159Z,5
2016-09-25T06:04:10.202Z,5
2016-09-25T06:05:10.264Z,5
2016-09-25T06:06:10.326Z,5
2016-09-25T06:07:10.385Z,5
2016-09-25T06:08:10.431Z,5
2016-09-25T06:09:10.486Z,10
2016-09-25T06:10:10.538Z,10
2016-09-25T06:11:10.590Z,10
2016-09-25T06:12:10.652Z,10
2016-09-25T06:13:10.734Z,10
2016-09-25T06:14:10.774Z,10
2016-09-25T06:15:10.836Z,10
2016-09-25T06:16:10.888Z,10
2016-09-25T06:17:10.943Z,10
2016-09-25T06:18:10.997Z,10
2016-09-25T06:19:11.050Z,10
2016-09-25T06:20:11.100Z,10
2016-09-25T06:21:11.173Z,10
2016-09-25T06:22:11.220Z,10
2016-09-25T06:23:11.251Z,10
2016-09-25T06:24:11.332Z,10
2016-09-25T06:25:11.377Z,10
2016-09-25T06:26:11.754Z,10
2016-09-25T06:27:11.475Z,10
2016-09-25T06:28:11.545Z,10
2016-09-25T06:29:11.620Z,15
2016-09-25T06:30:11.650Z,15
2016-09-25T06:31:11.725Z,15
2016-09-25T06:32:11.766Z,15
2016-09-25T06:33:11.826Z,15
2016-09-25T06:34:11.887Z,15
2016-09-25T06:35:11.932Z,15
2016-09-25T06:36:11.995Z,15
2016-09-25T06:37:12.047Z,15
2016-09-25T06:38:12.107Z,15
2016-09-25T06:39:12.146Z,15
2016-09-25T06:40:12.243Z,15
2016-09-25T06:41:12.248Z,15
2016-09-25T06:42:12.313Z,15
2016-09-25T06:43:12.378Z,20
2016-09-25T06:44:12.464Z,20
2016-09-25T06:45:12.507Z,20
2016-09-25T06:46:12.577Z,20
2016-09-25T06:47:12.614Z,20
2016-09-25T06:48:12.635Z,20
2016-09-25T06:49:12.731Z,20
2016-09-25T06:50:12.776Z,20
2016-09-25T06:51:12.842Z,20
2016-09-25T06:52:12.875Z,20
2016-09-25T06:53:12.939Z,20
2016-09-25T06:54:12.999Z,20
2016-09-25T06:55:13.038Z,20
2016-09-25T06:56:13.126Z,20
2016-09-25T06:57:13.175Z,20
2016-09-25T06:58:13.213Z,25
2016-09-25T06:59:13.286Z,25
2016-09-25T07:00:13.358Z,25
2016-09-25T07:01:13.408Z,25
2016-09-25T07:02:13.455Z,25
2016-09-25T07:03:13.499Z,25
2016-09-25T07:04:13.543Z,25
2016-09-25T07:05:13.628Z,25
2016-09-25T07:06:13.654Z,25
2016-09-25T07:07:13.728Z,25
2016-09-25T07:08:13.772Z,25
2016-09-25T07:09:13.838Z,25
2016-09-25T07:10:13.895Z,25
2016-09-25T07:11:14.247Z,25
2016-09-25T07:12:13.989Z,25
2016-09-25T07:13:14.062Z,30
2016-09-25T07:14:14.122Z,30
2016-09-25T07:15:14.173Z,30
2016-09-25T07:16:14.223Z,30
2016-09-25T07:17:14.282Z,30
2016-09-25T07:18:14.362Z,30
2016-09-25T07:19:14.417Z,30
2016-09-25T07:20:14.460Z,30
2016-09-25T07:21:14.500Z,30
2016-09-25T07:22:14.876Z,35
2016-09-25T07:23:14.645Z,35
2016-09-25T07:24:14.662Z,35
2016-09-25T07:25:14.748Z,35
2016-09-25T07:26:14.777Z,40
2016-09-25T07:27:14.819Z,40
2016-09-25T07:28:14.907Z,220
2016-09-25T07:29:14.969Z,520
2016-09-25T07:30:14.992Z,575
2016-09-25T07:31:15.066Z,540
2016-09-25T07:32:15.127Z,600
2016-09-25T07:33:15.179Z,570
2016-09-25T07:34:15.220Z,460
2016-09-25T07:35:15.304Z,485
2016-09-25T07:36:15.338Z,510
2016-09-25T07:37:15.393Z,505
2016-09-25T07:38:15.459Z,500
2016-09-25T07:39:15.499Z,530
2016-09-25T07:40:15.547Z,540
2016-09-25T07:41:15.625Z,535
2016-09-25T07:42:15.763Z,545
2016-09-25T07:43:15.730Z,580
2016-09-25T07:44:15.802Z,640
2016-09-25T07:45:15.826Z,640
2016-09-25T07:46:15.896Z,650
2016-09-25T07:47:15.946Z,695
2016-09-25T07:48:16.006Z,760
2016-09-25T07:49:16.372Z,845
2016-09-25T07:50:16.121Z,835
2016-09-25T07:51:16.169Z,515
2016-09-25T07:52:16.232Z,305
2016-09-25T07:53:16.305Z,280
2016-09-25T07:54:16.373Z,280
2016-09-25T07:55:16.406Z,290
2016-09-25T07:56:16.473Z,410
2016-09-25T07:57:16.520Z,820
2016-09-25T07:58:16.576Z,810
2016-09-25T07:59:16.640Z,690
2016-09-25T08:00:16.705Z,635
2016-09-25T08:01:16.757Z,670
2016-09-25T08:02:16.820Z,680
2016-09-25T08:03:16.844Z,705
2016-09-25T08:04:16.953Z,830
2016-09-25T08:05:16.986Z,850
2016-09-25T08:06:17.038Z,880
2016-09-25T08:07:17.081Z,815
2016-09-25T08:08:17.119Z,760
2016-09-25T08:09:17.191Z,800
2016-09-25T08:10:17.253Z,780
2016-09-25T08:11:17.497Z,820
2016-09-25T08:12:17.375Z,860
2016-09-25T08:13:17.438Z,885
2016-09-25T08:14:17.496Z,980
2016-09-25T08:15:17.527Z,880
2016-09-25T08:16:17.612Z,590
2016-09-25T08:17:17.631Z,390
2016-09-25T08:18:17.686Z,340
2016-09-25T08:19:17.795Z,415
2016-09-25T08:20:17.834Z,645
2016-09-25T08:21:17.888Z,760
2016-09-25T08:22:17.951Z,700
2016-09-25T08:23:17.986Z,435
2016-09-25T08:24:18.048Z,130
2016-09-25T08:25:18.117Z,105
2016-09-25T08:26:18.161Z,90
2016-09-25T08:27:18.234Z,75
2016-09-25T08:28:18.287Z,70
2016-09-25T08:29:18.332Z,70
2016-09-25T08:30:18.406Z,65
2016-09-25T08:31:18.460Z,65
2016-09-25T08:32:18.497Z,60
2016-09-25T08:33:18.569Z,60
2016-09-25T08:34:18.593Z,55
2016-09-25T08:35:18.668Z,55
2016-09-25T08:36:18.736Z,55
2016-09-25T08:37:19.106Z,55
2016-09-25T08:38:18.853Z,55
2016-09-25T08:39:18.894Z,55
2016-09-25T08:40:19.262Z,55
2016-09-25T08:41:19.042Z,50
2016-09-25T08:42:19.061Z,50
2016-09-25T08:43:19.331Z,50
2016-09-25T08:44:19.396Z,50
2016-09-25T08:45:19.245Z,50
2016-09-25T08:46:19.286Z,50
2016-09-25T08:47:19.380Z,50
2016-09-25T08:48:19.421Z,50
2016-09-25T08:49:19.473Z,50
2016-09-25T08:50:19.502Z,50
2016-09-25T08:51:19.572Z,50
2016-09-25T08:52:19.638Z,45
2016-09-25T08:53:19.703Z,45
2016-09-25T08:54:19.764Z,45
2016-09-25T08:55:19.819Z,45
2016-09-25T08:56:19.862Z,45
2016-09-25T08:57:19.931Z,45
2016-09-25T08:58:20.003Z,45
2016-09-25T08:59:20.059Z,45
2016-09-25T09:00:20.084Z,45
2016-09-25T09:01:20.149Z,45
2016-09-25T09:02:20.209Z,45
2016-09-25T09:03:20.281Z,45
2016-09-25T09:04:20.325Z,45
2016-09-25T09:05:20.383Z,45
2016-09-25T09:06:20.439Z,45
2016-09-25T09:07:20.501Z,45
2016-09-25T09:08:20.548Z,45
2016-09-25T09:09:20.610Z,45
2016-09-25T09:10:20.669Z,45
2016-09-25T09:11:20.714Z,45
2016-09-25T09:12:20.782Z,45
2016-09-25T09:13:20.826Z,45
2016-09-25T09:14:20.891Z,45
2016-09-25T09:15:20.940Z,45
2016-09-25T09:16:21.211Z,45
2016-09-25T09:17:21.246Z,45
2016-09-25T09:18:21.124Z,45
2016-09-25T09:19:21.146Z,45
2016-09-25T09:20:21.202Z,45
2016-09-25T09:21:21.301Z,45
2016-09-25T09:22:21.357Z,45
2016-09-25T09:23:21.395Z,45
2016-09-25T09:24:21.448Z,45
2016-09-25T09:25:21.510Z,45
2016-09-25T09:26:21.576Z,45
2016-09-25T09:27:21.622Z,45
2016-09-25T09:28:21.664Z,45
2016-09-25T09:29:21.729Z,45
2016-09-25T09:30:21.809Z,45
2016-09-25T09:31:21.850Z,45
2016-09-25T09:32:21.919Z,45
2016-09-25T09:33:21.961Z,45
2016-09-25T09:34:22.011Z,45
2016-09-25T09:35:22.081Z,45
2016-09-25T09:36:22.140Z,45
2016-09-25T09:37:22.179Z,45
2016-09-25T09:38:22.244Z,45
2016-09-25T09:39:22.373Z,45
2016-09-25T09:40:22.353Z,45
2016-09-25T09:41:22.417Z,45
2016-09-25T09:42:22.478Z,45
2016-09-25T09:43:22.524Z,45
2016-09-25T09:44:22.593Z,45
2016-09-25T09:45:22.613Z,45
2016-09-25T09:46:22.686Z,45
2016-09-25T09:47:22.770Z,45
2016-09-25T09:48:22.823Z,45
2016-09-25T09:49:23.076Z,45
2016-09-25T09:50:23.067Z,45
2016-09-25T09:51:23.002Z,45
2016-09-25T09:52:23.049Z,45
2016-09-25T09:53:23.088Z,45
2016-09-25T09:54:23.123Z,45
2016-09-25T09:55:23.211Z,45
2016-09-25T09:56:23.258Z,45
2016-09-25T09:57:23.297Z,45
2016-09-25T09:58:23.379Z,45
2016-09-25T09:59:23.427Z,45
2016-09-25T10:00:23.464Z,45
2016-09-25T10:01:23.562Z,45
2016-09-25T10:02:23.605Z,45
2016-09-25T10:03:23.658Z,45
2016-09-25T10:04:23.727Z,45
2016-09-25T10:05:23.768Z,45
2016-09-25T10:06:23.840Z,45
2016-09-25T10:07:23.861Z,45
2016-09-25T10:08:23.942Z,45
2016-09-25T10:09:23.985Z,45
2016-09-25T10:10:24.067Z,45
2016-09-25T10:11:24.105Z,50
2016-09-25T10:12:24.162Z,50
2016-09-25T10:13:24.222Z,50
2016-09-25T10:14:24.293Z,50
2016-09-25T10:15:24.489Z,50
2016-09-25T10:16:24.392Z,50
2016-09-25T10:17:24.429Z,50
2016-09-25T10:18:24.493Z,50
2016-09-25T10:19:24.572Z,50
2016-09-25T10:20:24.621Z,50
2016-09-25T10:21:24.676Z,50
2016-09-25T10:22:24.921Z,50
2016-09-25T10:23:24.814Z,50
2016-09-25T10:24:24.838Z,50
2016-09-25T10:25:24.923Z,50
2016-09-25T10:26:24.961Z,50
2016-09-25T10:27:24.991Z,50
2016-09-25T10:28:25.086Z,50
2016-09-25T10:29:25.110Z,50
2016-09-25T10:30:25.174Z,50
2016-09-25T10:31:25.228Z,50
2016-09-25T10:32:25.297Z,50
2016-09-25T10:33:25.334Z,50
2016-09-25T10:34:25.404Z,50
2016-09-25T10:35:25.456Z,50
2016-09-25T10:36:25.523Z,50
2016-09-25T10:37:25.587Z,50
2016-09-25T10:38:25.635Z,50
2016-09-25T10:39:25.693Z,50
2016-09-25T10:40:25.768Z,50
2016-09-25T10:41:25.806Z,50
2016-09-25T10:42:25.875Z,50
2016-09-25T10:43:25.928Z,50
2016-09-25T10:44:25.969Z,50
2016-09-25T10:45:26.015Z,50
2016-09-25T10:46:26.093Z,50
2016-09-25T10:47:26.132Z,50
2016-09-25T10:48:26.188Z,50
2016-09-25T10:49:26.263Z,50
2016-09-25T10:50:26.285Z,50
2016-09-25T10:51:26.370Z,50
2016-09-25T10:52:26.735Z,50
2016-09-25T10:53:26.476Z,50
2016-09-25T10:54:26.744Z,50
2016-09-25T10:55:26.822Z,50
2016-09-25T10:56:26.845Z,50
2016-09-25T10:57:26.697Z,50
2016-09-25T10:58:26.750Z,50
2016-09-25T10:59:26.791Z,50
2016-09-25T11:00:27.083Z,50
2016-09-25T11:01:26.930Z,50
2016-09-25T11:02:26.967Z,50
2016-09-25T11:03:27.057Z,50
2016-09-25T11:04:27.101Z,50
2016-09-25T11:05:27.142Z,50
2016-09-25T11:06:27.218Z,50
2016-09-25T11:07:27.285Z,50
2016-09-25T11:08:27.332Z,50
2016-09-25T11:09:27.386Z,50
2016-09-25T11:10:27.429Z,50
2016-09-25T11:11:27.520Z,50
2016-09-25T11:12:27.559Z,55
2016-09-25T11:13:27.623Z,55
2016-09-25T11:14:27.659Z,55
2016-09-25T11:15:27.712Z,55
2016-09-25T11:16:27.790Z,55
2016-09-25T11:17:27.853Z,55
2016-09-25T11:18:27.907Z,55
2016-09-25T11:19:27.944Z,55
2016-09-25T11:20:27.987Z,55
2016-09-25T11:21:28.061Z,55
2016-09-25T11:22:28.632Z,55
2016-09-25T11:23:28.189Z,55
2016-09-25T11:24:28.215Z,55
2016-09-25T11:25:28.304Z,55
2016-09-25T11:26:28.374Z,55
2016-09-25T11:27:28.592Z,55
2016-09-25T11:28:28.680Z,55
2016-09-25T11:29:28.710Z,55
2016-09-25T11:30:28.805Z,55
2016-09-25T11:31:28.653Z,55
2016-09-25T11:32:28.681Z,55
2016-09-25T11:33:28.756Z,55
2016-09-25T11:34:28.816Z,55
2016-09-25T11:35:28.859Z,55
2016-09-25T11:36:28.914Z,55
2016-09-25T11:37:28.972Z,55
2016-09-25T11:38:29.022Z,55
2016-09-25T11:39:29.094Z,60
2016-09-25T11:40:29.150Z,60
2016-09-25T11:41:29.215Z,60
2016-09-25T11:42:29.565Z,60
2016-09-25T11:43:29.300Z,60
2016-09-25T11:44:29.378Z,60
2016-09-25T11:45:29.451Z,60
2016-09-25T11:46:29.494Z,60
2016-09-25T11:47:29.565Z,60
2016-09-25T11:48:29.580Z,65
2016-09-25T11:49:29.665Z,65
2016-09-25T11:50:29.730Z,60
2016-09-25T11:51:29.786Z,65
2016-09-25T11:52:29.862Z,70
2016-09-25T11:53:30.223Z,95
2016-09-25T11:54:29.976Z,85
2016-09-25T11:55:29.997Z,75
2016-09-25T11:56:30.057Z,85
2016-09-25T11:57:30.139Z,110
2016-09-25T11:58:30.192Z,80
2016-09-25T11:59:30.550Z,75
2016-09-25T12:00:30.521Z,70
2016-09-25T12:01:30.537Z,70
2016-09-25T12:02:45.330Z,75
2016-09-25T12:03:30.782Z,75
2016-09-25T12:04:30.515Z,80
2016-09-25T12:05:30.585Z,105
2016-09-25T12:06:30.658Z,110
2016-09-25T12:07:30.709Z,115
2016-09-25T12:08:30.764Z,110
2016-09-25T12:09:30.824Z,110
2016-09-25T12:10:30.873Z,115
2016-09-25T12:11:30.939Z,120
2016-09-25T12:12:31.004Z,125
2016-09-25T12:13:31.080Z,135
2016-09-25T12:14:31.119Z,145
2016-09-25T12:15:31.200Z,160
2016-09-25T12:16:31.233Z,170
2016-09-25T12:17:31.284Z,205
2016-09-25T12:18:31.346Z,315
2016-09-25T12:19:31.400Z,460
2016-09-25T12:20:31.474Z,655
2016-09-25T12:21:31.501Z,865
2016-09-25T12:22:31.595Z,1000
2016-09-25T12:23:31.670Z,1125
2016-09-25T12:24:31.708Z,1245
2016-09-25T12:25:31.768Z,1350
2016-09-25T12:26:31.826Z,1345
2016-09-25T12:27:31.890Z,1330
2016-09-25T12:28:32.274Z,1320
2016-09-25T12:29:31.989Z,1305
2016-09-25T12:30:32.069Z,1315
2016-09-25T12:31:32.103Z,1290
2016-09-25T12:32:32.167Z,1270
2016-09-25T12:33:32.262Z,1320
2016-09-25T12:34:32.321Z,1335
2016-09-25T12:35:32.360Z,1325
2016-09-25T12:36:32.408Z,1280
2016-09-25T12:37:32.458Z,1235
2016-09-25T12:38:32.538Z,1340
2016-09-25T12:39:32.582Z,1375
2016-09-25T12:40:32.664Z,1345
2016-09-25T12:41:32.726Z,1360
2016-09-25T12:42:32.756Z,1350
2016-09-25T12:43:32.823Z,1415
2016-09-25T12:44:32.866Z,1465
2016-09-25T12:45:32.951Z,1450
2016-09-25T12:46:32.990Z,1330
2016-09-25T12:47:33.080Z,1250
2016-09-25T12:48:33.134Z,1240
2016-09-25T12:49:33.181Z,1170
2016-09-25T12:50:33.242Z,1385
2016-09-25T12:51:33.293Z,1495
2016-09-25T12:52:33.367Z,975
2016-09-25T12:53:33.434Z,80
2016-09-25T12:54:33.485Z,75
2016-09-25T12:55:33.561Z,710
2016-09-25T12:56:33.610Z,40
2016-09-25T12:57:33.671Z,50
2016-09-25T12:58:33.715Z,115
2016-09-25T12:59:33.783Z,255
2016-09-25T13:00:33.847Z,1300
2016-09-25T13:01:33.919Z,1215
2016-09-25T13:02:33.970Z,1150
2016-09-25T13:03:34.018Z,780
2016-09-25T13:04:34.073Z,885
2016-09-25T13:05:34.164Z,165
2016-09-25T13:06:34.216Z,85
2016-09-25T13:07:34.277Z,120
2016-09-25T13:08:34.313Z,25
2016-09-25T13:09:34.366Z,20
2016-09-25T13:10:34.447Z,25
2016-09-25T13:11:34.478Z,155
2016-09-25T13:12:34.538Z,355
2016-09-25T13:13:34.611Z,1065
2016-09-25T13:14:34.656Z,110
2016-09-25T13:15:34.723Z,100
2016-09-25T13:16:34.778Z,200
2016-09-25T13:17:34.820Z,155
2016-09-25T13:18:34.907Z,100
2016-09-25T13:19:34.965Z,75
2016-09-25T13:20:34.986Z,150
2016-09-25T13:21:35.067Z,760
2016-09-25T13:22:35.142Z,410
2016-09-25T13:23:35.195Z,120
2016-09-25T13:24:35.257Z,135
2016-09-25T13:25:35.311Z,55
2016-09-25T13:26:35.353Z,40
2016-09-25T13:27:35.433Z,50
2016-09-25T13:28:35.501Z,30
2016-09-25T13:29:35.528Z,25
2016-09-25T13:30:35.600Z,60
2016-09-25T13:31:35.659Z,650
2016-09-25T13:32:35.719Z,780
2016-09-25T13:33:35.798Z,170
2016-09-25T13:34:35.799Z,75
2016-09-25T13:35:36.207Z,50
2016-09-25T13:36:35.941Z,55
2016-09-25T13:37:35.982Z,35
2016-09-25T13:38:36.048Z,35
2016-09-25T13:39:36.123Z,40
2016-09-25T13:40:36.175Z,40
2016-09-25T13:41:36.233Z,35
2016-09-25T13:42:36.276Z,25
2016-09-25T13:43:36.355Z,30
2016-09-25T13:44:36.381Z,315
2016-09-25T13:45:36.467Z,240
2016-09-25T13:46:36.498Z,605
2016-09-25T13:47:36.552Z,35
2016-09-25T13:48:36.615Z,110
2016-09-25T13:49:36.689Z,65
2016-09-25T13:50:36.742Z,100
2016-09-25T13:51:36.775Z,85
2016-09-25T13:52:36.854Z,70
2016-09-25T13:53:36.899Z,50
2016-09-25T13:54:36.972Z,75
2016-09-25T13:55:37.022Z,60
2016-09-25T13:56:37.105Z,35
2016-09-25T13:57:37.173Z,20
2016-09-25T13:58:37.200Z,10
2016-09-25T13:59:37.258Z,10
2016-09-25T14:00:37.318Z,15
2016-09-25T14:01:37.335Z,15
2016-09-25T14:02:37.400Z,15
2016-09-25T14:03:37.451Z,20
2016-09-25T14:04:37.534Z,25
2016-09-25T14:05:37.617Z,15
2016-09-25T14:06:37.648Z,20
2016-09-25T14:07:37.697Z,10
2016-09-25T14:08:37.766Z,10
2016-09-25T14:09:37.809Z,10
2016-09-25T14:10:37.876Z,10
2016-09-25T14:11:37.927Z,10
2016-09-25T14:12:37.968Z,10
2016-09-25T14:13:38.036Z,10
2016-09-25T14:14:38.105Z,10
2016-09-25T14:15:38.159Z,10
2016-09-25T14:16:38.224Z,15
2016-09-25T14:17:38.263Z,15
2016-09-25T14:18:38.343Z,15
2016-09-25T14:19:38.357Z,10
2016-09-25T14:20:38.440Z,15
2016-09-25T14:21:38.469Z,10
2016-09-25T14:22:38.520Z,10
2016-09-25T14:23:38.607Z,15